Time;durP1;ratioP1;P1;durP2;ratioP2;P2;SDS_P1;SDS_P2;PMS_P1;PMS_P2;Temp;Humidity;BMP_temperature;BMP_pressure;BME280_temperature;BME280_humidity;BME280_pressure;Samples;Min_cycle;Max_cycle;Signal;HPM_P1;HPM_P2
2023/10/02 00:02:40;;;;;;;24.42;9.50;;;17.90;99.90;;;;;;5101504;28;20048;-79
2023/10/02 00:05:05;;;;;;;24.33;10.23;;;17.80;99.90;;;;;;5087068;28;20090;-80
2023/10/02 00:07:33;;;;;;;21.70;9.05;;;17.90;99.90;;;;;;5058471;28;20064;-80
2023/10/02 00:10:00;;;;;;;21.15;10.82;;;17.90;99.90;;;;;;5078840;28;20032;-80
2023/10/02 00:12:28;;;;;;;20.67;9.63;;;17.90;99.90;;;;;;5067812;28;20029;-79
2023/10/02 00:14:55;;;;;;;22.55;9.85;;;17.80;99.90;;;;;;5089041;28;20523;-79
2023/10/02 00:17:24;;;;;;;24.75;11.02;;;17.80;99.90;;;;;;5089452;28;20064;-82
2023/10/02 00:19:57;;;;;;;21.17;10.30;;;17.80;99.90;;;;;;5071567;28;20194;-79
2023/10/02 00:22:38;;;;;;;20.50;9.75;;;17.80;99.90;;;;;;5073113;28;20111;-79
2023/10/02 00:25:16;;;;;;;23.02;10.73;;;17.80;99.90;;;;;;5071581;28;20040;-80
2023/10/02 00:27:48;;;;;;;25.45;11.05;;;17.70;99.90;;;;;;5074104;28;20044;-79
2023/10/02 00:30:15;;;;;;;22.95;10.50;;;17.80;99.90;;;;;;5087813;28;20080;-79
2023/10/02 00:32:41;;;;;;;21.98;10.55;;;17.70;99.90;;;;;;5076419;28;20059;-79
2023/10/02 00:35:11;;;;;;;21.77;11.02;;;17.70;99.90;;;;;;5073633;28;20039;-79
2023/10/02 00:37:44;;;;;;;21.90;10.82;;;17.70;99.90;;;;;;5055564;28;20037;-79
2023/10/02 00:40:13;;;;;;;23.30;12.18;;;17.80;99.90;;;;;;5078028;28;20046;-80
2023/10/02 00:42:38;;;;;;;27.63;11.85;;;17.70;99.90;;;;;;5090941;28;20044;-79
2023/10/02 00:45:08;;;;;;;25.80;11.18;;;17.60;99.90;;;;;;5074481;28;20059;-79
2023/10/02 00:47:50;;;;;;;25.83;12.18;;;17.70;99.90;;;;;;5087948;28;20048;-79
2023/10/02 00:50:21;;;;;;;23.02;10.90;;;17.70;99.90;;;;;;5090523;28;20048;-79
2023/10/02 00:52:47;;;;;;;21.02;10.68;;;17.70;99.90;;;;;;5074400;28;20052;-80
2023/10/02 00:55:22;;;;;;;21.42;10.63;;;17.60;99.90;;;;;;5072572;28;20045;-81
2023/10/02 00:57:51;;;;;;;26.00;12.93;;;17.60;99.90;;;;;;5080324;28;20056;-79
2023/10/02 01:00:20;;;;;;;24.95;11.15;;;17.60;99.90;;;;;;5093369;28;20086;-79
2023/10/02 01:02:57;;;;;;;23.95;11.63;;;17.60;99.90;;;;;;5090695;28;20041;-79
2023/10/02 01:05:30;;;;;;;25.50;11.57;;;17.50;99.90;;;;;;5094208;28;20043;-79
2023/10/02 01:07:57;;;;;;;25.92;12.57;;;17.50;99.90;;;;;;5073889;28;20088;-79
2023/10/02 01:10:29;;;;;;;21.77;11.93;;;17.50;99.90;;;;;;5092129;28;20029;-80
2023/10/02 01:13:06;;;;;;;24.42;11.77;;;17.40;99.90;;;;;;5070629;28;20052;-79
2023/10/02 01:15:32;;;;;;;29.30;11.70;;;17.40;99.90;;;;;;5075352;28;20048;-79
2023/10/02 01:20:48;;;;;;;24.52;12.20;;;17.30;99.90;;;;;;5083403;28;20048;-79
2023/10/02 01:23:23;;;;;;;25.05;12.38;;;17.30;99.90;;;;;;5090801;28;20049;-80
2023/10/02 01:25:57;;;;;;;28.83;12.50;;;17.30;99.90;;;;;;5083021;28;20395;-79
2023/10/02 01:28:25;;;;;;;25.00;12.93;;;17.20;99.90;;;;;;5078950;28;20066;-79
2023/10/02 01:30:55;;;;;;;28.33;13.13;;;17.30;99.90;;;;;;5084737;28;20091;-79
2023/10/02 01:33:22;;;;;;;26.58;13.20;;;17.20;99.90;;;;;;5053012;28;20052;-81
2023/10/02 01:35:56;;;;;;;29.95;13.23;;;17.20;99.90;;;;;;5086800;28;20074;-79
2023/10/02 01:38:26;;;;;;;25.98;12.75;;;17.20;99.90;;;;;;5084086;28;20128;-79
2023/10/02 01:41:04;;;;;;;26.02;12.23;;;17.20;99.90;;;;;;5094929;28;20040;-80
2023/10/02 01:43:49;;;;;;;27.00;13.65;;;17.20;99.90;;;;;;5087778;28;20072;-79
2023/10/02 01:46:18;;;;;;;25.75;13.38;;;17.20;99.90;;;;;;5089016;28;20041;-79
2023/10/02 01:48:44;;;;;;;31.13;13.93;;;17.20;99.90;;;;;;5093303;28;20048;-79
2023/10/02 01:51:21;;;;;;;30.60;14.02;;;17.20;99.90;;;;;;5093038;28;20096;-79
2023/10/02 01:54:16;;;;;;;29.40;14.20;;;17.20;99.90;;;;;;5090154;28;20048;-80
2023/10/02 01:56:45;;;;;;;30.55;13.90;;;17.20;99.90;;;;;;5082680;28;20071;-79
2023/10/02 01:59:14;;;;;;;31.70;14.57;;;17.20;99.90;;;;;;5082372;28;20045;-79
2023/10/02 02:01:46;;;;;;;31.98;14.45;;;17.20;99.90;;;;;;5082128;28;20064;-78
2023/10/02 02:04:19;;;;;;;28.70;14.35;;;17.20;99.90;;;;;;5080195;28;20119;-81
2023/10/02 02:06:52;;;;;;;24.35;13.05;;;17.20;99.90;;;;;;5088928;28;20045;-79
2023/10/02 02:09:25;;;;;;;32.40;15.30;;;17.20;99.90;;;;;;5071961;28;20048;-79
2023/10/02 02:12:11;;;;;;;28.63;14.30;;;17.20;99.90;;;;;;5063683;28;20052;-79
2023/10/02 02:14:50;;;;;;;33.53;14.77;;;17.20;99.90;;;;;;5081337;28;20044;-80
2023/10/02 02:17:24;;;;;;;26.83;14.70;;;17.20;99.90;;;;;;5070962;28;20041;-80
2023/10/02 02:19:50;;;;;;;28.45;13.93;;;17.20;99.90;;;;;;5085878;28;20033;-80
2023/10/02 02:22:23;;;;;;;31.13;14.88;;;17.20;99.90;;;;;;5082710;28;20060;-79
2023/10/02 02:24:51;;;;;;;31.13;14.45;;;17.10;99.90;;;;;;5068605;28;20047;-79
2023/10/02 02:27:19;;;;;;;26.77;14.93;;;17.10;99.90;;;;;;5070774;28;20041;-79
2023/10/02 02:29:46;;;;;;;;;;;17.10;99.90;;;;;;5057324;28;20060;-79
2023/10/02 02:32:12;;;;;;;30.48;14.25;;;17.10;99.90;;;;;;5070552;28;19920;-79
2023/10/02 02:34:38;;;;;;;29.25;15.52;;;17.10;99.90;;;;;;5065104;28;20103;-78
2023/10/02 02:37:06;;;;;;;31.02;14.82;;;17.10;99.90;;;;;;5052242;28;20045;-78
2023/10/02 02:39:37;;;;;;;30.63;15.43;;;17.00;99.90;;;;;;5088873;28;20487;-79
2023/10/02 02:42:18;;;;;;;28.10;14.75;;;17.00;99.90;;;;;;5090223;28;20070;-79
2023/10/02 02:44:46;;;;;;;26.67;13.85;;;17.00;99.90;;;;;;5072112;28;20053;-79
2023/10/02 02:47:16;;;;;;;32.97;15.93;;;16.90;99.90;;;;;;5090742;28;20140;-79
2023/10/02 02:52:39;;;;;;;32.00;14.38;;;16.90;99.90;;;;;;5075277;28;20106;-81
2023/10/02 02:55:12;;;;;;;33.20;15.25;;;16.80;99.90;;;;;;5058656;28;20033;-78
2023/10/02 02:57:40;;;;;;;31.05;13.88;;;16.80;99.90;;;;;;5065499;28;20459;-80
2023/10/02 03:02:53;;;;;;;29.08;15.63;;;16.80;99.90;;;;;;5070114;28;20072;-79
2023/10/02 03:05:21;;;;;;;37.08;16.17;;;16.80;99.90;;;;;;5066255;28;20055;-80
2023/10/02 03:07:54;;;;;;;27.23;15.52;;;16.70;99.90;;;;;;5068577;28;20115;-79
2023/10/02 03:10:22;;;;;;;28.77;14.82;;;16.70;99.90;;;;;;5085761;28;20048;-80
2023/10/02 03:12:48;;;;;;;27.25;15.93;;;16.70;99.90;;;;;;5082377;28;20051;-79
2023/10/02 03:18:30;;;;;;;34.03;16.90;;;16.70;99.90;;;;;;5081910;28;20048;-80
2023/10/02 03:21:01;;;;;;;35.50;15.95;;;16.70;99.90;;;;;;5076023;28;20045;-79
2023/10/02 03:23:30;;;;;;;30.20;15.65;;;16.70;99.90;;;;;;5085236;28;20067;-79
2023/10/02 03:25:56;;;;;;;34.65;16.20;;;16.70;99.90;;;;;;5088384;28;20081;-79
2023/10/02 03:28:27;;;;;;;33.05;15.75;;;16.60;99.90;;;;;;5087640;28;20044;-79
2023/10/02 03:30:57;;;;;;;30.35;15.15;;;16.60;99.90;;;;;;5068883;28;20059;-79
2023/10/02 03:33:25;;;;;;;32.47;17.10;;;16.60;99.90;;;;;;5062917;28;20053;-81
2023/10/02 03:36:08;;;;;;;32.53;16.00;;;16.60;99.90;;;;;;5045859;28;20048;-79
2023/10/02 03:38:35;;;;;;;36.03;17.13;;;16.60;99.90;;;;;;5066242;28;20052;-80
2023/10/02 03:41:05;;;;;;;28.77;14.85;;;16.60;99.90;;;;;;5079776;28;20040;-80
2023/10/02 03:43:49;;;;;;;30.05;15.55;;;16.60;99.90;;;;;;5069610;28;20040;-80
2023/10/02 03:46:22;;;;;;;33.67;16.42;;;16.60;99.90;;;;;;5077988;28;20121;-80
2023/10/02 03:49:08;;;;;;;32.28;15.85;;;16.50;99.90;;;;;;5065344;28;20050;-80
2023/10/02 03:51:40;;;;;;;30.92;15.75;;;16.50;99.90;;;;;;5072310;28;21793;-80
2023/10/02 03:54:23;;;;;;;33.20;16.40;;;16.50;99.90;;;;;;5071436;28;20036;-79
2023/10/02 03:56:55;;;;;;;31.83;16.85;;;16.50;99.90;;;;;;5081789;28;20058;-78
2023/10/02 03:59:28;;;;;;;30.67;15.70;;;16.50;99.90;;;;;;5071512;28;20403;-80
2023/10/02 04:04:46;;;;;;;39.10;16.83;;;16.60;99.90;;;;;;5076935;28;20079;-79
2023/10/02 04:07:17;;;;;;;33.88;16.05;;;16.50;99.90;;;;;;5077266;28;20116;-78
2023/10/02 04:09:50;;;;;;;34.75;17.33;;;16.50;99.90;;;;;;5064712;28;20045;-81
2023/10/02 04:12:17;;;;;;;30.42;15.80;;;16.50;99.90;;;;;;5075628;28;20488;-80
2023/10/02 04:14:43;;;;;;;32.03;16.77;;;16.50;99.90;;;;;;5077903;28;20439;-79
2023/10/02 04:19:56;;;;;;;28.42;15.00;;;16.50;99.90;;;;;;5081435;28;20494;-81
2023/10/02 04:22:25;;;;;;;35.80;16.77;;;16.50;99.90;;;;;;5082381;28;20394;-81
2023/10/02 04:24:58;;;;;;;29.05;16.02;;;16.50;99.90;;;;;;5085719;28;20574;-80
2023/10/02 04:28:08;;;;;;;34.38;16.30;;;16.50;99.90;;;;;;5083673;28;20566;-79
2023/10/02 04:30:27;;;;;;;;;;;16.50;99.90;;;;;;5079007;28;20048;-80
2023/10/02 04:32:59;;;;;;;31.23;16.43;;;16.40;99.90;;;;;;5080440;28;20484;-80
2023/10/02 04:38:13;;;;;;;31.58;14.77;;;16.40;99.90;;;;;;5069530;28;20049;-81
2023/10/02 04:40:51;;;;;;;34.97;16.77;;;16.50;99.90;;;;;;5071075;28;20123;-81
2023/10/02 04:43:22;;;;;;;30.98;16.48;;;16.50;99.90;;;;;;5080002;28;20507;-80
2023/10/02 04:45:48;;;;;;;;;;;16.50;99.90;;;;;;5078057;28;20044;-79
2023/10/02 04:48:17;;;;;;;33.78;15.90;;;16.50;99.90;;;;;;5075316;28;20489;-80
2023/10/02 04:50:46;;;;;;;34.28;16.95;;;16.50;99.90;;;;;;5072230;28;20045;-80
2023/10/02 04:53:22;;;;;;;27.48;15.73;;;16.50;99.90;;;;;;5074478;28;20045;-80
2023/10/02 04:55:55;;;;;;;29.65;16.83;;;16.50;99.90;;;;;;5073862;28;20335;-81
2023/10/02 04:58:20;;;;;;;37.88;16.45;;;16.50;99.90;;;;;;5064492;28;20049;-81
2023/10/02 05:03:32;;;;;;;32.55;16.48;;;16.50;99.90;;;;;;5076228;28;20402;-79
2023/10/02 05:05:59;;;;;;;29.23;16.30;;;16.50;99.90;;;;;;5078068;28;20091;-78
2023/10/02 05:08:40;;;;;;;32.05;16.52;;;16.50;99.90;;;;;;5069295;28;20045;-79
2023/10/02 05:11:07;;;;;;;31.70;16.92;;;16.50;99.90;;;;;;5061804;28;20176;-80
2023/10/02 05:13:59;;;;;;;31.77;16.77;;;16.50;99.90;;;;;;5085199;28;20072;-82
2023/10/02 05:16:45;;;;;;;34.30;17.00;;;16.50;99.90;;;;;;5053864;28;20074;-82
2023/10/02 05:19:15;;;;;;;28.25;16.52;;;16.50;99.90;;;;;;5062986;28;20048;-81
2023/10/02 05:21:50;;;;;;;31.15;16.77;;;16.50;99.90;;;;;;5075142;28;20480;-79
2023/10/02 05:24:19;;;;;;;36.83;16.67;;;16.40;99.90;;;;;;5077131;28;20080;-82
2023/10/02 05:26:46;;;;;;;29.00;16.17;;;16.40;99.90;;;;;;5076271;28;20049;-80
2023/10/02 05:29:17;;;;;;;33.67;17.45;;;16.40;99.90;;;;;;5071715;28;20044;-82
2023/10/02 05:31:45;;;;;;;33.67;17.35;;;16.40;99.90;;;;;;5064263;28;20043;-82
2023/10/02 05:34:24;;;;;;;33.85;17.35;;;16.40;99.90;;;;;;5074089;28;20053;-80
2023/10/02 05:37:11;;;;;;;33.35;16.15;;;16.30;99.90;;;;;;5082168;28;20041;-82
2023/10/02 05:39:40;;;;;;;33.72;16.35;;;16.30;99.90;;;;;;5068508;28;20045;-82
2023/10/02 05:42:13;;;;;;;33.45;16.30;;;16.30;99.90;;;;;;5077317;28;20120;-81
2023/10/02 05:44:48;;;;;;;28.38;16.20;;;16.30;99.90;;;;;;5065088;28;20036;-85
2023/10/02 05:47:17;;;;;;;33.70;15.50;;;16.30;99.90;;;;;;5061515;28;20040;-80
2023/10/02 05:49:47;;;;;;;33.90;16.40;;;16.50;99.90;;;;;;5075522;28;20052;-81
2023/10/02 05:52:14;;;;;;;32.90;17.15;;;16.20;99.90;;;;;;5070249;28;20048;-82
2023/10/02 05:54:47;;;;;;;33.92;17.15;;;16.30;99.90;;;;;;5074328;28;20090;-80
2023/10/02 05:57:14;;;;;;;34.03;16.88;;;16.20;99.90;;;;;;5079551;28;20052;-80
2023/10/02 05:59:44;;;;;;;33.67;17.50;;;16.20;99.90;;;;;;5081169;28;20036;-82
2023/10/02 06:02:20;;;;;;;33.45;16.73;;;16.30;99.90;;;;;;5086071;28;20048;-80
2023/10/02 06:05:11;;;;;;;34.35;16.85;;;16.30;99.90;;;;;;5068106;28;20045;-81
2023/10/02 06:07:43;;;;;;;30.20;16.50;;;16.30;99.90;;;;;;5053535;28;20107;-81
2023/10/02 06:10:27;;;;;;;34.00;17.20;;;16.40;99.90;;;;;;5086096;28;20068;-81
2023/10/02 06:13:02;;;;;;;35.13;17.15;;;16.40;99.90;;;;;;5091093;28;20045;-81
2023/10/02 06:15:48;;;;;;;32.92;16.58;;;16.40;99.90;;;;;;5067259;28;20044;-80
2023/10/02 06:18:24;;;;;;;36.10;16.70;;;16.50;99.90;;;;;;5087469;28;20110;-80
2023/10/02 06:21:00;;;;;;;30.85;16.38;;;16.50;99.90;;;;;;5087265;28;20041;-80
2023/10/02 06:23:37;;;;;;;31.60;16.98;;;16.50;99.90;;;;;;5086286;28;20040;-80
2023/10/02 06:26:09;;;;;;;32.13;17.63;;;16.50;99.90;;;;;;5079588;28;20052;-80
2023/10/02 06:28:39;;;;;;;34.35;16.80;;;16.60;99.90;;;;;;5089948;28;20048;-80
2023/10/02 06:31:08;;;;;;;30.35;16.85;;;16.50;99.90;;;;;;5078296;28;20386;-80
2023/10/02 06:33:36;;;;;;;31.65;16.60;;;16.50;99.90;;;;;;5072450;28;20181;-81
2023/10/02 06:36:19;;;;;;;30.75;16.05;;;16.50;99.90;;;;;;5077393;28;20122;-80
2023/10/02 06:38:48;;;;;;;34.70;17.23;;;16.50;99.90;;;;;;5077281;28;20048;-79
2023/10/02 06:41:17;;;;;;;34.78;16.73;;;16.60;99.90;;;;;;5090606;28;20093;-79
2023/10/02 06:43:43;;;;;;;35.65;17.40;;;16.60;99.90;;;;;;5098611;28;20033;-81
2023/10/02 06:46:10;;;;;;;30.88;17.05;;;16.60;99.90;;;;;;5091857;28;20079;-81
2023/10/02 06:48:43;;;;;;;31.05;17.25;;;16.60;99.90;;;;;;5080579;28;20072;-81
2023/10/02 06:51:15;;;;;;;31.35;16.50;;;16.60;99.90;;;;;;5083983;28;20045;-80
2023/10/02 06:53:43;;;;;;;33.50;16.85;;;16.60;99.90;;;;;;5071379;28;20049;-81
2023/10/02 06:56:13;;;;;;;34.25;17.25;;;16.60;99.90;;;;;;5079651;28;20041;-80
2023/10/02 06:58:56;;;;;;;40.85;19.33;;;16.70;99.90;;;;;;5085625;28;20049;-80
2023/10/02 07:01:28;;;;;;;35.15;17.35;;;16.70;99.90;;;;;;5064989;28;20071;-81
2023/10/02 07:03:56;;;;;;;31.13;16.42;;;16.70;99.90;;;;;;5049883;28;20040;-80
2023/10/02 07:06:26;;;;;;;32.10;15.80;;;16.70;99.90;;;;;;5046617;28;20045;-80
2023/10/02 07:09:10;;;;;;;33.05;17.00;;;16.80;99.90;;;;;;5065900;28;20090;-81
2023/10/02 07:11:45;;;;;;;29.75;16.55;;;16.80;99.90;;;;;;5067669;28;20044;-81
2023/10/02 07:14:12;;;;;;;34.88;17.77;;;17.00;99.90;;;;;;5065476;28;20056;-80
2023/10/02 07:16:39;;;;;;;34.78;18.20;;;16.90;99.90;;;;;;5091569;28;20048;-80
2023/10/02 07:19:08;;;;;;;31.65;16.42;;;17.00;99.90;;;;;;5061609;28;20063;-80
2023/10/02 07:21:35;;;;;;;33.78;18.67;;;17.10;99.90;;;;;;5079733;28;20421;-81
2023/10/02 07:24:19;;;;;;;36.28;17.08;;;17.20;99.90;;;;;;5068909;28;20049;-81
2023/10/02 07:26:51;;;;;;;30.92;16.33;;;17.20;99.90;;;;;;5077309;28;20055;-80
2023/10/02 07:29:19;;;;;;;31.65;17.02;;;17.30;99.90;;;;;;5064757;28;20064;-81
2023/10/02 07:31:45;;;;;;;31.55;16.38;;;17.40;99.90;;;;;;5088719;28;20124;-81
2023/10/02 07:34:12;;;;;;;33.60;16.70;;;17.50;99.90;;;;;;5064099;28;20522;-83
2023/10/02 07:36:44;;;;;;;31.25;16.33;;;17.60;99.90;;;;;;5056796;28;20604;-82
2023/10/02 07:42:03;;;;;;;31.50;17.27;;;17.80;99.90;;;;;;5070020;28;20059;-81
2023/10/02 07:44:36;;;;;;;30.00;16.38;;;17.90;99.90;;;;;;5065048;28;20043;-82
2023/10/02 07:47:10;;;;;;;31.50;16.45;;;18.00;99.90;;;;;;5065429;28;20037;-81
2023/10/02 07:49:58;;;;;;;33.08;17.08;;;18.10;99.90;;;;;;5075657;28;20037;-80
2023/10/02 07:52:29;;;;;;;34.58;17.40;;;18.20;99.90;;;;;;5065398;28;20057;-80
2023/10/02 07:54:59;;;;;;;30.80;16.30;;;18.30;99.90;;;;;;5074484;28;20075;-82
2023/10/02 07:57:32;;;;;;;32.03;17.73;;;18.40;99.90;;;;;;5072157;28;20092;-81
2023/10/02 08:00:33;;;;;;;33.38;16.98;;;18.40;99.90;;;;;;5071862;28;20079;-83
2023/10/02 08:02:53;;;;;;;32.22;16.77;;;18.50;99.90;;;;;;5076040;28;20048;-81
2023/10/02 08:05:21;;;;;;;30.90;16.93;;;18.70;99.90;;;;;;5073722;28;20078;-81
2023/10/02 08:07:47;;;;;;;32.25;16.38;;;18.80;99.90;;;;;;5064945;28;20510;-84
2023/10/02 08:10:17;;;;;;;34.20;17.33;;;18.90;99.90;;;;;;5053853;28;20045;-83
2023/10/02 08:12:54;;;;;;;36.97;16.98;;;18.90;99.90;;;;;;5076611;28;20131;-83
2023/10/02 08:15:26;;;;;;;30.92;16.70;;;18.90;99.90;;;;;;5066131;28;20071;-81
2023/10/02 08:20:24;;;;;;;35.10;18.10;;;19.00;99.90;;;;;;5071957;28;22228;-82
2023/10/02 08:22:51;;;;;;;32.28;17.23;;;19.20;99.90;;;;;;5072355;28;20044;-81
2023/10/02 08:25:17;;;;;;;33.03;16.87;;;19.20;99.90;;;;;;5069338;28;20048;-80
2023/10/02 08:27:44;;;;;;;36.17;17.58;;;19.20;99.90;;;;;;5074383;28;20044;-81
2023/10/02 08:30:27;;;;;;;33.20;17.83;;;19.30;99.90;;;;;;5069273;28;20044;-81
2023/10/02 08:33:05;;;;;;;31.10;16.10;;;19.40;99.90;;;;;;5076229;28;20060;-80
2023/10/02 08:35:31;;;;;;;37.88;19.20;;;19.40;99.90;;;;;;5076382;28;20036;-80
2023/10/02 08:37:59;;;;;;;33.25;16.25;;;19.50;99.90;;;;;;5075578;28;20066;-81
2023/10/02 08:40:25;;;;;;;34.53;16.83;;;19.60;99.90;;;;;;5080283;28;20036;-82
2023/10/02 08:42:52;;;;;;;33.67;17.25;;;19.70;99.90;;;;;;5076396;28;20041;-81
2023/10/02 08:45:20;;;;;;;34.35;16.70;;;19.80;99.90;;;;;;5070068;28;20057;-82
2023/10/02 08:47:47;;;;;;;34.78;17.27;;;20.00;99.90;;;;;;5077265;28;20540;-81
2023/10/02 08:50:16;;;;;;;30.95;17.67;;;20.20;99.90;;;;;;5070373;28;20522;-83
2023/10/02 08:52:52;;;;;;;31.33;17.38;;;20.30;99.90;;;;;;5080221;28;20041;-81
2023/10/02 08:55:35;;;;;;;36.53;18.38;;;20.40;99.90;;;;;;5074479;28;20065;-81
2023/10/02 08:58:19;;;;;;;36.00;18.13;;;20.30;99.90;;;;;;5065050;28;20047;-82
2023/10/02 09:03:45;;;;;;;36.05;17.92;;;20.20;99.90;;;;;;5078075;28;20041;-82
2023/10/02 09:06:25;;;;;;;35.38;17.60;;;20.00;99.90;;;;;;5071629;28;20037;-82
2023/10/02 09:09:17;;;;;;;36.83;18.73;;;20.00;99.90;;;;;;5084951;28;20056;-80
2023/10/02 09:11:51;;;;;;;47.35;21.00;;;19.90;99.90;;;;;;5069767;28;20041;-82
2023/10/02 09:16:45;;;;;;;43.88;19.40;;;19.90;99.90;;;;;;5075205;28;20048;-82
2023/10/02 09:19:30;;;;;;;39.00;19.45;;;20.00;99.90;;;;;;5082977;28;20049;-81
2023/10/02 09:22:11;;;;;;;38.05;19.13;;;20.20;99.90;;;;;;5086816;28;20047;-82
2023/10/02 09:24:41;;;;;;;36.10;18.08;;;20.40;99.90;;;;;;5082285;28;20036;-79
2023/10/02 09:27:25;;;;;;;34.00;18.25;;;20.60;99.90;;;;;;5072076;28;20052;-82
2023/10/02 09:32:47;;;;;;;36.55;17.63;;;20.80;99.90;;;;;;5078352;28;20060;-81
2023/10/02 09:35:32;;;;;;;34.03;15.70;;;20.80;99.90;;;;;;5054832;28;20044;-80
2023/10/02 09:38:06;;;;;;;37.42;17.30;;;20.80;99.90;;;;;;5061912;28;20115;-81
2023/10/02 09:40:56;;;;;;;30.67;16.60;;;20.80;99.90;;;;;;5067383;28;20045;-81
2023/10/02 09:43:33;;;;;;;35.83;17.17;;;20.90;99.90;;;;;;5065359;28;20049;-81
2023/10/02 09:46:15;;;;;;;36.10;18.15;;;20.80;99.90;;;;;;5062638;28;20407;-81
2023/10/02 09:51:41;;;;;;;37.40;18.60;;;20.70;99.90;;;;;;5071321;28;20044;-80
2023/10/02 09:54:32;;;;;;;33.97;17.73;;;20.60;99.90;;;;;;5078770;28;20088;-79
2023/10/02 09:57:25;;;;;;;36.42;16.85;;;20.60;99.90;;;;;;5074090;28;20033;-82
2023/10/02 09:59:54;;;;;;;38.15;18.20;;;20.70;99.90;;;;;;5070295;28;20053;-80
2023/10/02 10:07:51;;;;;;;30.95;16.65;;;21.40;99.90;;;;;;5090775;28;20044;-83
2023/10/02 10:10:29;;;;;;;34.13;16.95;;;21.60;99.90;;;;;;5069274;28;20071;-81
2023/10/02 10:13:09;;;;;;;37.55;18.27;;;21.60;99.90;;;;;;5080533;28;20549;-81
2023/10/02 10:15:37;;;;;;;33.50;17.08;;;21.70;99.90;;;;;;5069542;28;20032;-81
2023/10/02 10:18:12;;;;;;;36.15;17.67;;;21.80;99.90;;;;;;5083034;28;20049;-79
2023/10/02 10:20:38;;;;;;;32.28;17.38;;;21.90;99.90;;;;;;5078417;28;20088;-83
2023/10/02 10:23:23;;;;;;;32.03;16.65;;;22.10;99.90;;;;;;5089967;28;20044;-80
2023/10/02 10:25:50;;;;;;;32.80;16.05;;;22.60;99.90;;;;;;5088641;28;20053;-81
2023/10/02 10:28:28;;;;;;;34.42;16.38;;;22.80;99.90;;;;;;5063914;28;20057;-81
2023/10/02 10:30:56;;;;;;;34.80;16.00;;;22.80;99.90;;;;;;5072383;28;20633;-80
2023/10/02 10:33:25;;;;;;;31.92;14.73;;;22.80;99.90;;;;;;5091207;28;20087;-79
2023/10/02 10:35:58;;;;;;;30.15;15.73;;;22.90;99.90;;;;;;5083023;28;20101;-81
2023/10/02 10:38:44;;;;;;;27.60;15.50;;;23.10;99.90;;;;;;5073906;28;20032;-82
2023/10/02 10:41:27;;;;;;;26.23;14.55;;;23.40;99.90;;;;;;5075667;28;20045;-81
2023/10/02 10:43:55;;;;;;;30.58;15.80;;;23.40;99.90;;;;;;5072031;28;20517;-81
2023/10/02 10:46:28;;;;;;;38.03;17.30;;;23.50;99.90;;;;;;5076185;28;20048;-80
2023/10/02 10:48:59;;;;;;;32.03;16.92;;;23.80;99.90;;;;;;5072500;28;20116;-80
2023/10/02 10:51:28;;;;;;;35.45;15.73;;;24.00;99.90;;;;;;5072093;28;20056;-81
2023/10/02 10:54:41;;;;;;;28.05;16.23;;;24.00;99.90;;;;;;5075714;28;20092;-80
2023/10/02 10:57:19;;;;;;;29.52;16.88;;;23.70;99.90;;;;;;5077456;28;20056;-81
2023/10/02 10:59:45;;;;;;;33.00;16.02;;;23.50;99.90;;;;;;5078476;28;20072;-80
2023/10/02 11:02:21;;;;;;;33.40;17.63;;;23.20;99.90;;;;;;5078810;28;20044;-84
2023/10/02 11:04:50;;;;;;;32.85;16.73;;;23.00;99.90;;;;;;5069948;28;20048;-81
2023/10/02 11:07:25;;;;;;;34.92;18.70;;;22.80;99.90;;;;;;5070465;28;20083;-80
2023/10/02 11:10:19;;;;;;;30.15;18.05;;;22.60;99.90;;;;;;5077080;28;20083;-82
2023/10/02 11:13:08;;;;;;;32.92;17.25;;;22.50;99.90;;;;;;5083684;28;20083;-81
2023/10/02 11:15:47;;;;;;;36.80;17.13;;;22.40;99.90;;;;;;5084328;28;20069;-81
2023/10/02 11:18:20;;;;;;;37.67;18.67;;;22.30;99.90;;;;;;5062762;28;20044;-81
2023/10/02 11:21:00;;;;;;;33.75;17.05;;;22.20;99.90;;;;;;5082409;28;20249;-82
2023/10/02 11:23:40;;;;;;;31.23;17.58;;;22.20;99.90;;;;;;5076142;28;20060;-83
2023/10/02 11:26:21;;;;;;;33.60;17.70;;;22.30;99.90;;;;;;5076063;28;20040;-81
2023/10/02 11:28:50;;;;;;;37.85;17.63;;;22.40;99.90;;;;;;5069030;28;20041;-81
2023/10/02 11:31:45;;;;;;;27.50;16.20;;;22.50;99.90;;;;;;5071497;28;20033;-83
2023/10/02 11:34:11;;;;;;;35.10;16.60;;;22.60;99.90;;;;;;5072171;28;20048;-82
2023/10/02 11:36:46;;;;;;;36.55;17.67;;;22.70;99.90;;;;;;5068539;28;20055;-82
2023/10/02 11:39:19;;;;;;;31.08;16.05;;;22.80;99.90;;;;;;5066061;28;20215;-82
2023/10/02 11:41:46;;;;;;;34.00;15.48;;;22.80;99.90;;;;;;5066212;28;20045;-83
2023/10/02 11:44:13;;;;;;;30.37;15.80;;;23.00;99.90;;;;;;5066490;28;20040;-80
2023/10/02 11:48:44;;;;;;;30.88;16.60;;;23.20;99.90;;;;;;4990147;27;4316793;-74
2023/10/02 11:51:10;;;;;;;32.85;16.00;;;23.30;99.90;;;;;;5114307;27;20047;-75
2023/10/02 11:53:39;;;;;;;27.52;15.07;;;23.10;99.90;;;;;;5128785;27;20035;-73
2023/10/02 11:56:08;;;;;;;30.55;16.63;;;23.30;99.90;;;;;;5137059;22;20062;-80
2023/10/02 11:58:34;;;;;;;35.72;16.63;;;23.40;99.90;;;;;;5042722;28;20045;-82
2023/10/02 12:01:04;;;;;;;32.47;16.80;;;23.40;99.90;;;;;;5075479;28;20453;-82
2023/10/02 12:03:36;;;;;;;31.48;17.45;;;23.30;99.90;;;;;;5066144;28;20036;-80
2023/10/02 12:06:02;;;;;;;27.50;15.88;;;23.30;99.90;;;;;;5037307;28;20405;-82
2023/10/02 12:08:33;;;;;;;30.13;17.00;;;23.20;99.90;;;;;;5086164;28;20536;-82
2023/10/02 12:11:00;;;;;;;27.02;15.38;;;23.10;99.90;;;;;;5046621;28;20113;-82
2023/10/02 12:13:29;;;;;;;27.88;16.30;;;23.10;99.90;;;;;;5061293;28;20052;-81
2023/10/02 12:15:56;;;;;;;29.70;16.58;;;23.00;99.90;;;;;;5092795;28;20052;-82
2023/10/02 12:18:22;;;;;;;26.38;16.55;;;22.90;99.90;;;;;;5059878;28;20049;-81
2023/10/02 12:20:49;;;;;;;29.10;16.50;;;22.80;99.90;;;;;;5078926;28;20501;-82
2023/10/02 12:23:16;;;;;;;31.60;16.47;;;22.70;99.90;;;;;;5080019;28;20410;-81
2023/10/02 12:25:48;;;;;;;38.78;17.83;;;22.70;99.90;;;;;;5080734;28;20049;-83
2023/10/02 12:28:17;;;;;;;30.67;17.40;;;22.60;99.90;;;;;;5085266;28;20047;-83
2023/10/02 12:30:44;;;;;;;32.38;18.45;;;22.50;99.90;;;;;;5095835;28;20098;-83
2023/10/02 12:33:09;;;;;;;29.65;17.63;;;22.50;99.90;;;;;;5079878;28;20044;-83
2023/10/02 12:35:36;;;;;;;29.73;17.98;;;22.50;99.90;;;;;;5079663;28;20033;-82
2023/10/02 12:38:04;;;;;;;37.58;19.92;;;22.40;99.90;;;;;;5080751;28;20049;-83
2023/10/02 12:40:34;;;;;;;34.17;20.83;;;22.50;99.90;;;;;;5060975;28;20475;-83
2023/10/02 12:43:03;;;;;;;35.92;19.10;;;22.50;99.90;;;;;;5059121;28;20052;-83
2023/10/02 12:45:35;;;;;;;34.22;20.70;;;22.50;99.90;;;;;;5074476;28;20037;-82
2023/10/02 12:48:06;;;;;;;34.85;18.80;;;22.40;99.90;;;;;;5075045;28;20048;-82
2023/10/02 12:50:39;;;;;;;34.50;19.98;;;22.30;99.90;;;;;;5070845;28;20406;-82
2023/10/02 12:53:07;;;;;;;37.88;20.02;;;22.30;99.90;;;;;;5067332;28;20040;-81
2023/10/02 12:55:36;;;;;;;35.85;18.80;;;22.20;99.90;;;;;;5074473;28;20467;-83
2023/10/02 12:58:05;;;;;;;32.85;17.33;;;22.20;99.90;;;;;;5074165;28;20049;-81
2023/10/02 13:00:40;;;;;;;31.77;18.73;;;22.10;99.90;;;;;;5060675;28;20080;-83
2023/10/02 13:03:07;;;;;;;33.45;19.75;;;22.10;99.90;;;;;;5051225;28;20495;-83
2023/10/02 13:05:33;;;;;;;33.17;19.42;;;22.10;99.90;;;;;;5057648;28;20045;-82
2023/10/02 13:07:59;;;;;;;36.63;19.27;;;22.10;99.90;;;;;;5058146;28;20597;-81
2023/10/02 13:10:25;;;;;;;30.17;18.05;;;22.10;99.90;;;;;;5059331;28;20049;-83
2023/10/02 13:12:51;;;;;;;31.10;18.42;;;22.20;99.90;;;;;;5059462;28;20496;-83
2023/10/02 13:15:16;;;;;;;32.70;17.83;;;22.20;99.90;;;;;;5064236;28;20041;-84
2023/10/02 13:17:43;;;;;;;31.42;18.20;;;22.20;99.90;;;;;;5045099;28;20052;-83
2023/10/02 13:20:10;;;;;;;36.13;19.00;;;22.20;99.90;;;;;;5039899;28;20172;-82
2023/10/02 13:22:37;;;;;;;33.63;19.10;;;22.20;99.90;;;;;;5057550;28;20402;-82
2023/10/02 13:25:11;;;;;;;33.20;18.45;;;22.20;99.90;;;;;;5038958;28;20045;-85
2023/10/02 13:27:37;;;;;;;29.67;16.85;;;22.20;99.90;;;;;;5051245;28;20056;-84
2023/10/02 13:30:05;;;;;;;33.03;18.05;;;22.30;99.90;;;;;;5059470;28;20410;-84
2023/10/02 13:32:31;;;;;;;32.45;17.90;;;22.20;99.90;;;;;;5034330;28;20053;-84
2023/10/02 13:34:57;;;;;;;28.88;17.23;;;22.20;99.90;;;;;;5042956;28;20045;-82
2023/10/02 13:37:22;;;;;;;32.30;17.80;;;22.30;99.90;;;;;;5059667;28;20128;-82
2023/10/02 13:39:48;;;;;;;34.05;18.90;;;22.30;99.90;;;;;;5041304;28;20134;-83
2023/10/02 13:42:14;;;;;;;39.83;19.73;;;22.20;99.90;;;;;;5041127;28;20037;-83